sensor_id;sensor_type;location;lat;lon;timestamp;P1;durP1;ratioP1;P2;durP2;ratioP2
43014;SDS011;28637;50.554;7.032;2024-03-22T00:01:23;12.07;;;6.03;;
43014;SDS011;28637;50.554;7.032;2024-03-22T00:06:24;11.97;;;6.03;;
43014;SDS011;28637;50.554;7.032;2024-03-22T00:11:25;12.70;;;6.47;;
43014;SDS011;28637;50.554;7.032;2024-03-22T00:16:25;12.23;;;6.20;;
43014;SDS011;28637;50.554;7.032;2024-03-22T00:21:26;12.47;;;6.30;;
43014;SDS011;28637;50.554;7.032;2024-03-22T00:31:30;14.35;;;6.10;;
43014;SDS011;28637;50.554;7.032;2024-03-22T00:36:31;13.37;;;6.80;;
43014;SDS011;28637;50.554;7.032;2024-03-22T00:41:32;14.60;;;6.57;;
43014;SDS011;28637;50.554;7.032;2024-03-22T00:46:33;12.67;;;6.40;;
43014;SDS011;28637;50.554;7.032;2024-03-22T00:51:33;14.80;;;7.10;;
43014;SDS011;28637;50.554;7.032;2024-03-22T00:56:34;13.23;;;6.60;;
43014;SDS011;28637;50.554;7.032;2024-03-22T01:01:35;16.47;;;6.30;;
43014;SDS011;28637;50.554;7.032;2024-03-22T01:06:35;12.50;;;6.43;;
43014;SDS011;28637;50.554;7.032;2024-03-22T01:11:36;12.60;;;6.80;;
43014;SDS011;28637;50.554;7.032;2024-03-22T01:16:37;12.73;;;6.10;;
43014;SDS011;28637;50.554;7.032;2024-03-22T01:21:38;13.00;;;6.57;;
43014;SDS011;28637;50.554;7.032;2024-03-22T01:26:38;13.20;;;6.77;;
43014;SDS011;28637;50.554;7.032;2024-03-22T01:31:39;11.87;;;6.27;;
43014;SDS011;28637;50.554;7.032;2024-03-22T01:36:40;14.30;;;6.33;;
43014;SDS011;28637;50.554;7.032;2024-03-22T01:41:41;12.33;;;6.43;;
43014;SDS011;28637;50.554;7.032;2024-03-22T01:46:41;13.90;;;6.77;;
43014;SDS011;28637;50.554;7.032;2024-03-22T01:51:44;14.18;;;6.85;;
43014;SDS011;28637;50.554;7.032;2024-03-22T01:56:45;13.90;;;6.87;;
43014;SDS011;28637;50.554;7.032;2024-03-22T02:01:46;13.67;;;6.70;;
43014;SDS011;28637;50.554;7.032;2024-03-22T02:06:47;12.30;;;6.30;;
43014;SDS011;28637;50.554;7.032;2024-03-22T02:11:47;13.30;;;6.83;;
43014;SDS011;28637;50.554;7.032;2024-03-22T02:16:49;11.95;;;6.32;;
43014;SDS011;28637;50.554;7.032;2024-03-22T02:21:49;11.03;;;6.40;;
43014;SDS011;28637;50.554;7.032;2024-03-22T02:26:50;12.70;;;6.73;;
43014;SDS011;28637;50.554;7.032;2024-03-22T02:31:51;14.30;;;6.80;;
43014;SDS011;28637;50.554;7.032;2024-03-22T02:36:52;12.57;;;7.17;;
43014;SDS011;28637;50.554;7.032;2024-03-22T02:41:52;13.90;;;6.40;;
43014;SDS011;28637;50.554;7.032;2024-03-22T02:46:53;12.50;;;6.70;;
43014;SDS011;28637;50.554;7.032;2024-03-22T02:51:54;13.10;;;6.97;;
43014;SDS011;28637;50.554;7.032;2024-03-22T02:56:55;14.30;;;7.27;;
43014;SDS011;28637;50.554;7.032;2024-03-22T03:01:55;15.93;;;7.43;;
43014;SDS011;28637;50.554;7.032;2024-03-22T03:06:56;13.53;;;6.70;;
43014;SDS011;28637;50.554;7.032;2024-03-22T03:11:57;14.73;;;7.03;;
43014;SDS011;28637;50.554;7.032;2024-03-22T03:16:57;13.70;;;7.47;;
43014;SDS011;28637;50.554;7.032;2024-03-22T03:21:58;14.97;;;6.77;;
43014;SDS011;28637;50.554;7.032;2024-03-22T03:26:59;16.37;;;6.90;;
43014;SDS011;28637;50.554;7.032;2024-03-22T03:32:00;13.87;;;7.00;;
43014;SDS011;28637;50.554;7.032;2024-03-22T03:37:00;16.20;;;7.30;;
43014;SDS011;28637;50.554;7.032;2024-03-22T03:42:01;14.93;;;7.13;;
43014;SDS011;28637;50.554;7.032;2024-03-22T03:47:02;14.83;;;6.90;;
43014;SDS011;28637;50.554;7.032;2024-03-22T03:52:03;14.70;;;7.37;;
43014;SDS011;28637;50.554;7.032;2024-03-22T03:57:04;13.93;;;6.83;;
43014;SDS011;28637;50.554;7.032;2024-03-22T04:02:05;13.33;;;6.90;;
43014;SDS011;28637;50.554;7.032;2024-03-22T04:07:06;14.83;;;7.17;;
43014;SDS011;28637;50.554;7.032;2024-03-22T04:12:07;12.37;;;6.80;;
43014;SDS011;28637;50.554;7.032;2024-03-22T04:17:07;11.93;;;6.33;;
43014;SDS011;28637;50.554;7.032;2024-03-22T04:22:08;12.13;;;6.33;;
43014;SDS011;28637;50.554;7.032;2024-03-22T04:27:09;13.40;;;6.70;;
43014;SDS011;28637;50.554;7.032;2024-03-22T04:32:10;12.70;;;6.37;;
43014;SDS011;28637;50.554;7.032;2024-03-22T04:37:10;11.13;;;5.70;;
43014;SDS011;28637;50.554;7.032;2024-03-22T04:42:14;10.77;;;5.57;;
43014;SDS011;28637;50.554;7.032;2024-03-22T04:47:16;12.35;;;6.10;;
43014;SDS011;28637;50.554;7.032;2024-03-22T04:52:16;11.87;;;5.87;;
43014;SDS011;28637;50.554;7.032;2024-03-22T04:57:17;10.00;;;5.63;;
43014;SDS011;28637;50.554;7.032;2024-03-22T05:02:18;11.00;;;5.90;;
43014;SDS011;28637;50.554;7.032;2024-03-22T05:07:19;10.63;;;5.77;;
43014;SDS011;28637;50.554;7.032;2024-03-22T05:12:19;10.70;;;5.30;;
43014;SDS011;28637;50.554;7.032;2024-03-22T05:17:20;9.17;;;5.07;;
43014;SDS011;28637;50.554;7.032;2024-03-22T05:22:21;12.67;;;5.10;;
43014;SDS011;28637;50.554;7.032;2024-03-22T05:27:22;11.40;;;5.33;;
43014;SDS011;28637;50.554;7.032;2024-03-22T05:32:23;13.67;;;5.33;;
43014;SDS011;28637;50.554;7.032;2024-03-22T05:37:24;11.20;;;5.17;;
43014;SDS011;28637;50.554;7.032;2024-03-22T05:42:24;8.30;;;4.23;;
43014;SDS011;28637;50.554;7.032;2024-03-22T05:47:25;9.40;;;4.63;;
43014;SDS011;28637;50.554;7.032;2024-03-22T05:52:26;10.00;;;5.03;;
43014;SDS011;28637;50.554;7.032;2024-03-22T05:57:27;9.67;;;4.83;;
43014;SDS011;28637;50.554;7.032;2024-03-22T06:02:28;10.97;;;5.80;;
43014;SDS011;28637;50.554;7.032;2024-03-22T06:07:29;8.00;;;4.90;;
43014;SDS011;28637;50.554;7.032;2024-03-22T06:12:30;9.10;;;4.77;;
43014;SDS011;28637;50.554;7.032;2024-03-22T06:17:30;7.53;;;4.70;;
43014;SDS011;28637;50.554;7.032;2024-03-22T06:22:33;10.85;;;5.28;;
43014;SDS011;28637;50.554;7.032;2024-03-22T06:27:33;8.93;;;4.87;;
43014;SDS011;28637;50.554;7.032;2024-03-22T06:32:34;9.10;;;5.10;;
43014;SDS011;28637;50.554;7.032;2024-03-22T06:37:36;10.50;;;4.67;;
43014;SDS011;28637;50.554;7.032;2024-03-22T06:42:38;8.20;;;4.57;;
43014;SDS011;28637;50.554;7.032;2024-03-22T06:47:38;10.97;;;4.93;;
43014;SDS011;28637;50.554;7.032;2024-03-22T06:52:39;6.80;;;4.40;;
43014;SDS011;28637;50.554;7.032;2024-03-22T06:57:40;9.30;;;4.47;;
43014;SDS011;28637;50.554;7.032;2024-03-22T07:02:41;7.00;;;4.70;;
43014;SDS011;28637;50.554;7.032;2024-03-22T07:07:42;8.03;;;4.57;;
43014;SDS011;28637;50.554;7.032;2024-03-22T07:12:42;8.93;;;4.93;;
43014;SDS011;28637;50.554;7.032;2024-03-22T07:17:43;10.53;;;4.83;;
43014;SDS011;28637;50.554;7.032;2024-03-22T07:22:44;7.30;;;4.53;;
43014;SDS011;28637;50.554;7.032;2024-03-22T07:27:44;11.83;;;5.63;;
43014;SDS011;28637;50.554;7.032;2024-03-22T07:32:47;10.50;;;5.57;;
43014;SDS011;28637;50.554;7.032;2024-03-22T07:37:48;9.50;;;5.77;;
43014;SDS011;28637;50.554;7.032;2024-03-22T07:42:49;11.53;;;5.80;;
43014;SDS011;28637;50.554;7.032;2024-03-22T07:47:50;11.20;;;6.40;;
43014;SDS011;28637;50.554;7.032;2024-03-22T07:52:51;11.43;;;6.18;;
43014;SDS011;28637;50.554;7.032;2024-03-22T07:57:52;13.50;;;6.83;;
43014;SDS011;28637;50.554;7.032;2024-03-22T08:02:52;13.13;;;5.97;;
43014;SDS011;28637;50.554;7.032;2024-03-22T08:07:53;11.67;;;6.60;;
43014;SDS011;28637;50.554;7.032;2024-03-22T08:12:54;15.37;;;6.37;;
43014;SDS011;28637;50.554;7.032;2024-03-22T08:22:59;15.07;;;7.55;;
43014;SDS011;28637;50.554;7.032;2024-03-22T08:28:00;16.67;;;7.47;;
43014;SDS011;28637;50.554;7.032;2024-03-22T08:33:01;17.08;;;7.72;;
43014;SDS011;28637;50.554;7.032;2024-03-22T08:38:04;17.58;;;9.10;;
43014;SDS011;28637;50.554;7.032;2024-03-22T08:43:09;15.65;;;8.77;;
43014;SDS011;28637;50.554;7.032;2024-03-22T08:48:10;15.60;;;8.57;;
43014;SDS011;28637;50.554;7.032;2024-03-22T08:53:11;12.63;;;8.23;;
43014;SDS011;28637;50.554;7.032;2024-03-22T08:58:12;13.33;;;8.87;;
43014;SDS011;28637;50.554;7.032;2024-03-22T09:03:14;13.25;;;8.65;;
43014;SDS011;28637;50.554;7.032;2024-03-22T09:08:15;16.03;;;9.30;;
43014;SDS011;28637;50.554;7.032;2024-03-22T09:13:16;15.20;;;8.87;;
43014;SDS011;28637;50.554;7.032;2024-03-22T09:18:17;20.80;;;9.83;;
43014;SDS011;28637;50.554;7.032;2024-03-22T09:23:17;18.03;;;10.70;;
43014;SDS011;28637;50.554;7.032;2024-03-22T09:28:18;19.13;;;9.40;;
43014;SDS011;28637;50.554;7.032;2024-03-22T09:33:19;17.07;;;10.30;;
43014;SDS011;28637;50.554;7.032;2024-03-22T09:38:19;18.70;;;10.77;;
43014;SDS011;28637;50.554;7.032;2024-03-22T09:43:21;18.50;;;10.33;;
43014;SDS011;28637;50.554;7.032;2024-03-22T09:48:22;17.98;;;10.02;;
43014;SDS011;28637;50.554;7.032;2024-03-22T09:53:23;22.17;;;10.45;;
43014;SDS011;28637;50.554;7.032;2024-03-22T09:58:27;19.83;;;10.40;;
43014;SDS011;28637;50.554;7.032;2024-03-22T10:03:28;19.73;;;10.37;;
43014;SDS011;28637;50.554;7.032;2024-03-22T10:08:29;16.42;;;10.15;;
43014;SDS011;28637;50.554;7.032;2024-03-22T10:13:30;17.05;;;9.98;;
43014;SDS011;28637;50.554;7.032;2024-03-22T10:18:34;19.17;;;10.87;;
43014;SDS011;28637;50.554;7.032;2024-03-22T10:23:35;16.00;;;9.82;;
43014;SDS011;28637;50.554;7.032;2024-03-22T10:28:36;17.87;;;9.30;;
43014;SDS011;28637;50.554;7.032;2024-03-22T10:33:45;16.42;;;9.55;;
43014;SDS011;28637;50.554;7.032;2024-03-22T10:38:46;15.27;;;9.27;;
43014;SDS011;28637;50.554;7.032;2024-03-22T10:43:52;13.30;;;8.02;;
43014;SDS011;28637;50.554;7.032;2024-03-22T10:48:53;13.00;;;8.05;;
43014;SDS011;28637;50.554;7.032;2024-03-22T10:53:56;15.15;;;8.20;;
43014;SDS011;28637;50.554;7.032;2024-03-22T10:59:02;10.10;;;7.35;;
43014;SDS011;28637;50.554;7.032;2024-03-22T11:04:04;13.75;;;8.05;;
43014;SDS011;28637;50.554;7.032;2024-03-22T11:09:10;12.18;;;7.85;;
43014;SDS011;28637;50.554;7.032;2024-03-22T11:14:11;15.37;;;7.97;;
43014;SDS011;28637;50.554;7.032;2024-03-22T11:19:11;12.97;;;7.87;;
43014;SDS011;28637;50.554;7.032;2024-03-22T11:24:12;12.00;;;6.93;;
43014;SDS011;28637;50.554;7.032;2024-03-22T11:29:14;11.57;;;7.47;;
43014;SDS011;28637;50.554;7.032;2024-03-22T11:39:15;11.15;;;6.75;;
43014;SDS011;28637;50.554;7.032;2024-03-22T11:44:17;13.73;;;6.88;;
43014;SDS011;28637;50.554;7.032;2024-03-22T11:49:18;12.70;;;6.70;;
43014;SDS011;28637;50.554;7.032;2024-03-22T11:54:19;10.50;;;6.07;;
43014;SDS011;28637;50.554;7.032;2024-03-22T11:59:21;9.70;;;5.95;;
43014;SDS011;28637;50.554;7.032;2024-03-22T12:04:22;10.90;;;6.13;;
43014;SDS011;28637;50.554;7.032;2024-03-22T12:09:23;11.18;;;6.88;;
43014;SDS011;28637;50.554;7.032;2024-03-22T12:14:23;12.53;;;6.60;;
43014;SDS011;28637;50.554;7.032;2024-03-22T12:19:24;13.03;;;7.23;;
43014;SDS011;28637;50.554;7.032;2024-03-22T12:24:25;11.60;;;6.80;;
43014;SDS011;28637;50.554;7.032;2024-03-22T12:29:32;12.27;;;6.85;;
43014;SDS011;28637;50.554;7.032;2024-03-22T12:34:33;14.90;;;8.02;;
43014;SDS011;28637;50.554;7.032;2024-03-22T12:39:34;13.37;;;7.20;;
43014;SDS011;28637;50.554;7.032;2024-03-22T12:44:35;13.55;;;7.40;;
43014;SDS011;28637;50.554;7.032;2024-03-22T12:49:35;12.73;;;7.77;;
43014;SDS011;28637;50.554;7.032;2024-03-22T12:54:36;11.77;;;6.93;;
43014;SDS011;28637;50.554;7.032;2024-03-22T12:59:37;11.37;;;7.23;;
43014;SDS011;28637;50.554;7.032;2024-03-22T13:04:37;13.93;;;7.03;;
43014;SDS011;28637;50.554;7.032;2024-03-22T13:09:38;12.17;;;6.90;;
43014;SDS011;28637;50.554;7.032;2024-03-22T13:14:39;12.57;;;7.10;;
43014;SDS011;28637;50.554;7.032;2024-03-22T13:19:40;11.10;;;7.10;;
43014;SDS011;28637;50.554;7.032;2024-03-22T13:24:42;15.10;;;7.47;;
43014;SDS011;28637;50.554;7.032;2024-03-22T13:29:43;11.82;;;6.35;;
43014;SDS011;28637;50.554;7.032;2024-03-22T13:34:44;11.70;;;6.50;;
43014;SDS011;28637;50.554;7.032;2024-03-22T13:39:50;11.67;;;6.37;;
43014;SDS011;28637;50.554;7.032;2024-03-22T13:44:51;10.27;;;6.28;;
43014;SDS011;28637;50.554;7.032;2024-03-22T13:49:52;11.93;;;6.30;;
43014;SDS011;28637;50.554;7.032;2024-03-22T13:54:52;10.50;;;5.80;;
43014;SDS011;28637;50.554;7.032;2024-03-22T13:59:53;11.20;;;5.93;;
43014;SDS011;28637;50.554;7.032;2024-03-22T14:04:54;10.83;;;5.83;;
43014;SDS011;28637;50.554;7.032;2024-03-22T14:09:54;7.93;;;5.20;;
43014;SDS011;28637;50.554;7.032;2024-03-22T14:14:55;6.93;;;4.83;;
43014;SDS011;28637;50.554;7.032;2024-03-22T14:19:56;9.07;;;4.80;;
43014;SDS011;28637;50.554;7.032;2024-03-22T14:24:57;7.23;;;4.50;;
43014;SDS011;28637;50.554;7.032;2024-03-22T14:29:59;6.03;;;4.05;;
43014;SDS011;28637;50.554;7.032;2024-03-22T14:35:00;6.38;;;3.92;;
43014;SDS011;28637;50.554;7.032;2024-03-22T14:40:01;6.07;;;3.90;;
43014;SDS011;28637;50.554;7.032;2024-03-22T14:45:05;6.53;;;3.55;;
43014;SDS011;28637;50.554;7.032;2024-03-22T14:50:08;8.55;;;3.97;;
43014;SDS011;28637;50.554;7.032;2024-03-22T14:55:09;9.23;;;3.30;;
43014;SDS011;28637;50.554;7.032;2024-03-22T15:00:09;4.83;;;3.00;;
43014;SDS011;28637;50.554;7.032;2024-03-22T15:05:13;4.70;;;3.30;;
43014;SDS011;28637;50.554;7.032;2024-03-22T15:10:13;4.38;;;2.72;;
43014;SDS011;28637;50.554;7.032;2024-03-22T15:15:14;6.60;;;3.00;;
43014;SDS011;28637;50.554;7.032;2024-03-22T15:20:15;7.38;;;2.90;;
43014;SDS011;28637;50.554;7.032;2024-03-22T15:25:16;3.88;;;2.22;;
43014;SDS011;28637;50.554;7.032;2024-03-22T15:30:17;2.72;;;1.50;;
43014;SDS011;28637;50.554;7.032;2024-03-22T15:35:18;4.70;;;1.50;;
43014;SDS011;28637;50.554;7.032;2024-03-22T15:40:22;4.78;;;3.45;;
43014;SDS011;28637;50.554;7.032;2024-03-22T15:45:23;6.43;;;4.00;;
43014;SDS011;28637;50.554;7.032;2024-03-22T15:50:24;5.45;;;4.00;;
43014;SDS011;28637;50.554;7.032;2024-03-22T15:55:25;5.15;;;4.00;;
43014;SDS011;28637;50.554;7.032;2024-03-22T16:00:26;4.53;;;3.72;;
43014;SDS011;28637;50.554;7.032;2024-03-22T16:05:28;7.55;;;4.20;;
43014;SDS011;28637;50.554;7.032;2024-03-22T16:10:28;6.78;;;4.22;;
43014;SDS011;28637;50.554;7.032;2024-03-22T16:15:29;7.45;;;4.57;;
43014;SDS011;28637;50.554;7.032;2024-03-22T16:20:30;5.97;;;3.65;;
43014;SDS011;28637;50.554;7.032;2024-03-22T16:25:31;4.75;;;2.70;;
43014;SDS011;28637;50.554;7.032;2024-03-22T16:30:31;7.28;;;3.92;;
43014;SDS011;28637;50.554;7.032;2024-03-22T16:35:33;6.78;;;4.93;;
43014;SDS011;28637;50.554;7.032;2024-03-22T16:40:34;8.38;;;5.13;;
43014;SDS011;28637;50.554;7.032;2024-03-22T16:45:35;8.65;;;5.25;;
43014;SDS011;28637;50.554;7.032;2024-03-22T16:50:36;8.93;;;6.57;;
43014;SDS011;28637;50.554;7.032;2024-03-22T16:55:37;12.23;;;7.45;;
43014;SDS011;28637;50.554;7.032;2024-03-22T17:00:38;11.07;;;7.25;;
43014;SDS011;28637;50.554;7.032;2024-03-22T17:05:38;9.95;;;7.28;;
43014;SDS011;28637;50.554;7.032;2024-03-22T17:10:42;10.13;;;7.30;;
43014;SDS011;28637;50.554;7.032;2024-03-22T17:15:44;9.68;;;6.45;;
43014;SDS011;28637;50.554;7.032;2024-03-22T17:25:46;14.80;;;6.97;;
43014;SDS011;28637;50.554;7.032;2024-03-22T17:30:47;10.60;;;6.80;;
43014;SDS011;28637;50.554;7.032;2024-03-22T17:35:48;12.27;;;7.30;;
43014;SDS011;28637;50.554;7.032;2024-03-22T17:40:48;13.10;;;7.53;;
43014;SDS011;28637;50.554;7.032;2024-03-22T17:45:56;13.73;;;8.03;;
43014;SDS011;28637;50.554;7.032;2024-03-22T17:51:00;13.00;;;8.50;;
43014;SDS011;28637;50.554;7.032;2024-03-22T17:56:01;12.93;;;8.70;;
43014;SDS011;28637;50.554;7.032;2024-03-22T18:06:03;14.65;;;9.35;;
43014;SDS011;28637;50.554;7.032;2024-03-22T18:11:04;17.63;;;10.00;;
43014;SDS011;28637;50.554;7.032;2024-03-22T18:16:05;16.57;;;9.80;;
43014;SDS011;28637;50.554;7.032;2024-03-22T18:21:06;16.97;;;9.63;;
43014;SDS011;28637;50.554;7.032;2024-03-22T18:26:07;15.73;;;10.00;;
43014;SDS011;28637;50.554;7.032;2024-03-22T18:31:08;19.07;;;10.93;;
43014;SDS011;28637;50.554;7.032;2024-03-22T18:36:09;17.70;;;10.80;;
43014;SDS011;28637;50.554;7.032;2024-03-22T18:41:09;16.70;;;10.60;;
43014;SDS011;28637;50.554;7.032;2024-03-22T18:46:10;19.53;;;11.73;;
43014;SDS011;28637;50.554;7.032;2024-03-22T18:51:11;22.37;;;12.23;;
43014;SDS011;28637;50.554;7.032;2024-03-22T18:56:14;20.35;;;12.68;;
43014;SDS011;28637;50.554;7.032;2024-03-22T19:01:14;19.87;;;12.20;;
43014;SDS011;28637;50.554;7.032;2024-03-22T19:06:15;23.73;;;12.80;;
43014;SDS011;28637;50.554;7.032;2024-03-22T19:11:16;21.90;;;13.17;;
43014;SDS011;28637;50.554;7.032;2024-03-22T19:16:17;20.70;;;12.33;;
43014;SDS011;28637;50.554;7.032;2024-03-22T19:21:18;22.03;;;12.30;;
43014;SDS011;28637;50.554;7.032;2024-03-22T19:26:19;22.50;;;12.82;;
43014;SDS011;28637;50.554;7.032;2024-03-22T19:31:20;19.83;;;12.73;;
43014;SDS011;28637;50.554;7.032;2024-03-22T19:36:20;20.47;;;12.33;;
43014;SDS011;28637;50.554;7.032;2024-03-22T19:41:26;21.08;;;13.30;;
43014;SDS011;28637;50.554;7.032;2024-03-22T19:51:28;23.25;;;12.02;;
43014;SDS011;28637;50.554;7.032;2024-03-22T19:56:28;20.00;;;12.20;;
43014;SDS011;28637;50.554;7.032;2024-03-22T20:01:29;18.83;;;12.60;;
43014;SDS011;28637;50.554;7.032;2024-03-22T20:06:32;23.13;;;13.32;;
43014;SDS011;28637;50.554;7.032;2024-03-22T20:11:32;22.10;;;13.47;;
43014;SDS011;28637;50.554;7.032;2024-03-22T20:16:33;17.83;;;12.23;;
43014;SDS011;28637;50.554;7.032;2024-03-22T20:21:34;21.30;;;12.73;;
43014;SDS011;28637;50.554;7.032;2024-03-22T20:26:34;21.17;;;12.97;;
43014;SDS011;28637;50.554;7.032;2024-03-22T20:31:35;19.70;;;12.17;;
43014;SDS011;28637;50.554;7.032;2024-03-22T20:36:39;19.20;;;12.63;;
